sensor_id;sensor_type;location;lat;lon;timestamp;temperature;humidity
65824;SHT31;52585;47.566;19.056;2023-02-15T00:01:57;3.76;66.79
65824;SHT31;52585;47.566;19.056;2023-02-15T00:04:23;3.72;66.98
65824;SHT31;52585;47.566;19.056;2023-02-15T00:07:10;3.68;66.99
65824;SHT31;52585;47.566;19.056;2023-02-15T00:09:38;3.65;66.88
65824;SHT31;52585;47.566;19.056;2023-02-15T00:12:04;3.60;66.88
65824;SHT31;52585;47.566;19.056;2023-02-15T00:14:29;3.58;66.82
65824;SHT31;52585;47.566;19.056;2023-02-15T00:16:55;3.56;66.72
65824;SHT31;52585;47.566;19.056;2023-02-15T00:19:24;3.52;66.70
65824;SHT31;52585;47.566;19.056;2023-02-15T00:21:51;3.48;66.67
65824;SHT31;52585;47.566;19.056;2023-02-15T00:24:17;3.45;66.58
65824;SHT31;52585;47.566;19.056;2023-02-15T00:26:45;3.41;66.61
65824;SHT31;52585;47.566;19.056;2023-02-15T00:29:12;3.37;66.71
65824;SHT31;52585;47.566;19.056;2023-02-15T00:31:40;3.34;66.86
65824;SHT31;52585;47.566;19.056;2023-02-15T00:34:07;3.31;67.00
65824;SHT31;52585;47.566;19.056;2023-02-15T00:36:45;3.30;67.12
65824;SHT31;52585;47.566;19.056;2023-02-15T00:39:11;3.26;67.09
65824;SHT31;52585;47.566;19.056;2023-02-15T00:41:37;3.23;67.03
65824;SHT31;52585;47.566;19.056;2023-02-15T00:44:03;3.22;66.98
65824;SHT31;52585;47.566;19.056;2023-02-15T00:46:30;3.18;66.90
65824;SHT31;52585;47.566;19.056;2023-02-15T00:48:56;3.14;66.93
65824;SHT31;52585;47.566;19.056;2023-02-15T00:51:22;3.11;66.90
65824;SHT31;52585;47.566;19.056;2023-02-15T00:53:48;3.09;66.90
65824;SHT31;52585;47.566;19.056;2023-02-15T00:56:14;3.06;66.88
65824;SHT31;52585;47.566;19.056;2023-02-15T00:58:40;3.02;66.85
65824;SHT31;52585;47.566;19.056;2023-02-15T01:01:06;2.99;67.08
65824;SHT31;52585;47.566;19.056;2023-02-15T01:03:35;2.97;67.29
65824;SHT31;52585;47.566;19.056;2023-02-15T01:06:02;2.95;67.39
65824;SHT31;52585;47.566;19.056;2023-02-15T01:08:28;2.94;67.43
65824;SHT31;52585;47.566;19.056;2023-02-15T01:10:55;2.93;67.38
65824;SHT31;52585;47.566;19.056;2023-02-15T01:13:21;2.91;67.30
65824;SHT31;52585;47.566;19.056;2023-02-15T01:15:54;2.90;67.29
65824;SHT31;52585;47.566;19.056;2023-02-15T01:18:21;2.86;67.26
65824;SHT31;52585;47.566;19.056;2023-02-15T01:20:47;2.84;67.24
65824;SHT31;52585;47.566;19.056;2023-02-15T01:23:13;2.81;67.18
65824;SHT31;52585;47.566;19.056;2023-02-15T01:25:40;2.78;67.21
65824;SHT31;52585;47.566;19.056;2023-02-15T01:28:06;2.75;67.21
65824;SHT31;52585;47.566;19.056;2023-02-15T01:30:32;2.73;67.46
65824;SHT31;52585;47.566;19.056;2023-02-15T01:32:58;2.71;67.59
65824;SHT31;52585;47.566;19.056;2023-02-15T01:35:26;2.71;67.68
65824;SHT31;52585;47.566;19.056;2023-02-15T01:37:53;2.68;67.68
65824;SHT31;52585;47.566;19.056;2023-02-15T01:40:21;2.68;67.64
65824;SHT31;52585;47.566;19.056;2023-02-15T01:42:51;2.66;67.57
65824;SHT31;52585;47.566;19.056;2023-02-15T01:47:51;2.60;67.57
65824;SHT31;52585;47.566;19.056;2023-02-15T01:50:51;2.59;67.50
65824;SHT31;52585;47.566;19.056;2023-02-15T01:53:24;2.57;67.48
65824;SHT31;52585;47.566;19.056;2023-02-15T01:56:10;2.55;67.49
65824;SHT31;52585;47.566;19.056;2023-02-15T01:58:46;2.54;67.70
65824;SHT31;52585;47.566;19.056;2023-02-15T02:01:12;2.52;67.80
65824;SHT31;52585;47.566;19.056;2023-02-15T02:06:23;2.50;67.80
65824;SHT31;52585;47.566;19.056;2023-02-15T02:08:51;2.49;67.70
65824;SHT31;52585;47.566;19.056;2023-02-15T02:11:19;2.48;67.60
65824;SHT31;52585;47.566;19.056;2023-02-15T02:13:45;2.45;67.56
65824;SHT31;52585;47.566;19.056;2023-02-15T02:22:23;2.39;67.42
65824;SHT31;52585;47.566;19.056;2023-02-15T02:36:58;2.23;67.73
65824;SHT31;52585;47.566;19.056;2023-02-15T02:39:46;2.18;67.81
65824;SHT31;52585;47.566;19.056;2023-02-15T02:42:35;2.14;67.72
65824;SHT31;52585;47.566;19.056;2023-02-15T02:45:25;2.09;67.76
65824;SHT31;52585;47.566;19.056;2023-02-15T02:48:08;2.08;67.79
65824;SHT31;52585;47.566;19.056;2023-02-15T02:50:41;2.06;67.72
65824;SHT31;52585;47.566;19.056;2023-02-15T02:53:07;2.04;67.77
65824;SHT31;52585;47.566;19.056;2023-02-15T02:58:19;1.99;68.13
65824;SHT31;52585;47.566;19.056;2023-02-15T03:00:53;1.99;68.27
65824;SHT31;52585;47.566;19.056;2023-02-15T03:06:32;2.00;68.09
65824;SHT31;52585;47.566;19.056;2023-02-15T03:09:25;1.99;67.96
65824;SHT31;52585;47.566;19.056;2023-02-15T03:12:07;1.98;67.97
65824;SHT31;52585;47.566;19.056;2023-02-15T03:14:40;1.97;67.95
65824;SHT31;52585;47.566;19.056;2023-02-15T03:17:09;1.96;67.84
65824;SHT31;52585;47.566;19.056;2023-02-15T03:19:39;1.94;67.81
65824;SHT31;52585;47.566;19.056;2023-02-15T03:22:07;1.91;67.86
65824;SHT31;52585;47.566;19.056;2023-02-15T03:27:39;1.91;68.30
65824;SHT31;52585;47.566;19.056;2023-02-15T03:30:12;1.90;68.33
65824;SHT31;52585;47.566;19.056;2023-02-15T03:32:41;1.88;68.21
65824;SHT31;52585;47.566;19.056;2023-02-15T03:35:09;1.84;68.23
65824;SHT31;52585;47.566;19.056;2023-02-15T03:37:43;1.81;68.26
65824;SHT31;52585;47.566;19.056;2023-02-15T03:40:24;1.80;68.20
65824;SHT31;52585;47.566;19.056;2023-02-15T03:46:11;1.79;68.26
65824;SHT31;52585;47.566;19.056;2023-02-15T03:48:53;1.78;68.24
65824;SHT31;52585;47.566;19.056;2023-02-15T03:51:23;1.73;68.31
65824;SHT31;52585;47.566;19.056;2023-02-15T03:54:02;1.69;68.63
65824;SHT31;52585;47.566;19.056;2023-02-15T03:57:03;1.68;68.68
65824;SHT31;52585;47.566;19.056;2023-02-15T03:59:51;1.66;68.60
65824;SHT31;52585;47.566;19.056;2023-02-15T04:05:33;1.65;68.50
65824;SHT31;52585;47.566;19.056;2023-02-15T04:08:00;1.66;68.39
65824;SHT31;52585;47.566;19.056;2023-02-15T04:10:26;1.65;68.29
65824;SHT31;52585;47.566;19.056;2023-02-15T04:13:11;1.65;68.28
65824;SHT31;52585;47.566;19.056;2023-02-15T04:15:36;1.63;68.18
65824;SHT31;52585;47.566;19.056;2023-02-15T04:18:20;1.62;68.37
65824;SHT31;52585;47.566;19.056;2023-02-15T04:20:46;1.61;68.46
65824;SHT31;52585;47.566;19.056;2023-02-15T04:23:31;1.61;68.49
65824;SHT31;52585;47.566;19.056;2023-02-15T04:26:15;1.59;68.52
65824;SHT31;52585;47.566;19.056;2023-02-15T04:28:41;1.58;68.47
65824;SHT31;52585;47.566;19.056;2023-02-15T04:31:07;1.59;68.47
65824;SHT31;52585;47.566;19.056;2023-02-15T04:33:32;1.59;68.44
65824;SHT31;52585;47.566;19.056;2023-02-15T04:35:59;1.60;68.44
65824;SHT31;52585;47.566;19.056;2023-02-15T04:38:25;1.60;68.38
65824;SHT31;52585;47.566;19.056;2023-02-15T04:40:51;1.60;68.32
65824;SHT31;52585;47.566;19.056;2023-02-15T04:43:18;1.60;68.28
65824;SHT31;52585;47.566;19.056;2023-02-15T04:45:50;1.58;68.44
65824;SHT31;52585;47.566;19.056;2023-02-15T04:48:16;1.56;68.56
65824;SHT31;52585;47.566;19.056;2023-02-15T04:50:43;1.55;68.60
65824;SHT31;52585;47.566;19.056;2023-02-15T04:53:10;1.54;68.57
65824;SHT31;52585;47.566;19.056;2023-02-15T04:55:36;1.53;68.46
65824;SHT31;52585;47.566;19.056;2023-02-15T04:58:02;1.52;68.34
65824;SHT31;52585;47.566;19.056;2023-02-15T05:00:27;1.48;68.28
65824;SHT31;52585;47.566;19.056;2023-02-15T05:02:53;1.46;68.19
65824;SHT31;52585;47.566;19.056;2023-02-15T05:05:19;1.43;68.12
65824;SHT31;52585;47.566;19.056;2023-02-15T05:07:44;1.39;68.12
65824;SHT31;52585;47.566;19.056;2023-02-15T05:10:10;1.36;68.11
65824;SHT31;52585;47.566;19.056;2023-02-15T05:12:36;1.34;68.09
65824;SHT31;52585;47.566;19.056;2023-02-15T05:15:01;1.34;68.21
65824;SHT31;52585;47.566;19.056;2023-02-15T05:17:27;1.31;68.36
65824;SHT31;52585;47.566;19.056;2023-02-15T05:19:53;1.29;68.49
65824;SHT31;52585;47.566;19.056;2023-02-15T05:22:18;1.27;68.47
65824;SHT31;52585;47.566;19.056;2023-02-15T05:24:44;1.25;68.47
65824;SHT31;52585;47.566;19.056;2023-02-15T05:27:28;1.24;68.38
65824;SHT31;52585;47.566;19.056;2023-02-15T05:30:12;1.21;68.34
65824;SHT31;52585;47.566;19.056;2023-02-15T05:32:39;1.20;68.31
65824;SHT31;52585;47.566;19.056;2023-02-15T05:35:05;1.20;68.23
65824;SHT31;52585;47.566;19.056;2023-02-15T05:37:32;1.17;68.28
65824;SHT31;52585;47.566;19.056;2023-02-15T05:39:58;1.15;68.35
65824;SHT31;52585;47.566;19.056;2023-02-15T05:42:24;1.14;68.59
65824;SHT31;52585;47.566;19.056;2023-02-15T05:44:49;1.15;68.72
65824;SHT31;52585;47.566;19.056;2023-02-15T05:47:15;1.16;68.83
65824;SHT31;52585;47.566;19.056;2023-02-15T05:49:40;1.17;68.77
65824;SHT31;52585;47.566;19.056;2023-02-15T05:52:06;1.17;68.73
65824;SHT31;52585;47.566;19.056;2023-02-15T05:54:32;1.17;68.78
65824;SHT31;52585;47.566;19.056;2023-02-15T05:56:57;1.18;68.69
65824;SHT31;52585;47.566;19.056;2023-02-15T05:59:23;1.18;68.59
65824;SHT31;52585;47.566;19.056;2023-02-15T06:01:49;1.19;68.57
65824;SHT31;52585;47.566;19.056;2023-02-15T06:04:15;1.19;68.57
65824;SHT31;52585;47.566;19.056;2023-02-15T06:06:40;1.17;68.59
65824;SHT31;52585;47.566;19.056;2023-02-15T06:09:06;1.16;68.74
65824;SHT31;52585;47.566;19.056;2023-02-15T06:11:31;1.15;68.92
65824;SHT31;52585;47.566;19.056;2023-02-15T06:13:57;1.14;69.04
65824;SHT31;52585;47.566;19.056;2023-02-15T06:16:22;1.14;69.04
65824;SHT31;52585;47.566;19.056;2023-02-15T06:18:48;1.14;68.93
65824;SHT31;52585;47.566;19.056;2023-02-15T06:21:14;1.14;68.82
65824;SHT31;52585;47.566;19.056;2023-02-15T06:23:39;1.13;68.77
65824;SHT31;52585;47.566;19.056;2023-02-15T06:26:05;1.11;68.82
65824;SHT31;52585;47.566;19.056;2023-02-15T06:28:31;1.11;68.78
65824;SHT31;52585;47.566;19.056;2023-02-15T06:30:56;1.11;68.81
65824;SHT31;52585;47.566;19.056;2023-02-15T06:33:22;1.13;69.01
65824;SHT31;52585;47.566;19.056;2023-02-15T06:35:49;1.14;69.13
65824;SHT31;52585;47.566;19.056;2023-02-15T06:38:14;1.16;69.29
65824;SHT31;52585;47.566;19.056;2023-02-15T06:40:40;1.19;69.33
65824;SHT31;52585;47.566;19.056;2023-02-15T06:43:06;1.22;69.27
65824;SHT31;52585;47.566;19.056;2023-02-15T06:45:31;1.23;69.23
65824;SHT31;52585;47.566;19.056;2023-02-15T06:47:57;1.26;69.29
65824;SHT31;52585;47.566;19.056;2023-02-15T06:50:22;1.30;69.25
65824;SHT31;52585;47.566;19.056;2023-02-15T06:52:48;1.31;69.36
65824;SHT31;52585;47.566;19.056;2023-02-15T06:55:13;1.32;69.37
65824;SHT31;52585;47.566;19.056;2023-02-15T06:57:39;1.37;69.47
65824;SHT31;52585;47.566;19.056;2023-02-15T07:00:05;1.42;69.84
65824;SHT31;52585;47.566;19.056;2023-02-15T07:02:33;1.47;70.02
65824;SHT31;52585;47.566;19.056;2023-02-15T07:04:58;1.51;70.01
65824;SHT31;52585;47.566;19.056;2023-02-15T07:07:24;1.54;69.96
65824;SHT31;52585;47.566;19.056;2023-02-15T07:09:50;1.58;69.91
65824;SHT31;52585;47.566;19.056;2023-02-15T07:12:16;1.62;69.94
65824;SHT31;52585;47.566;19.056;2023-02-15T07:15:00;1.65;69.93
65824;SHT31;52585;47.566;19.056;2023-02-15T07:17:26;1.68;69.84
65824;SHT31;52585;47.566;19.056;2023-02-15T07:19:53;1.72;70.02
65824;SHT31;52585;47.566;19.056;2023-02-15T07:22:20;1.75;70.19
65824;SHT31;52585;47.566;19.056;2023-02-15T07:24:45;1.81;70.81
65824;SHT31;52585;47.566;19.056;2023-02-15T07:27:12;1.90;71.22
65824;SHT31;52585;47.566;19.056;2023-02-15T07:29:38;1.96;71.11
65824;SHT31;52585;47.566;19.056;2023-02-15T07:32:03;2.01;71.12
65824;SHT31;52585;47.566;19.056;2023-02-15T07:34:29;2.07;70.92
65824;SHT31;52585;47.566;19.056;2023-02-15T07:36:54;2.13;70.89
65824;SHT31;52585;47.566;19.056;2023-02-15T07:39:20;2.19;70.86
65824;SHT31;52585;47.566;19.056;2023-02-15T07:41:46;2.25;70.75
65824;SHT31;52585;47.566;19.056;2023-02-15T07:44:11;2.30;70.67
65824;SHT31;52585;47.566;19.056;2023-02-15T07:46:39;2.36;70.69
65824;SHT31;52585;47.566;19.056;2023-02-15T07:49:05;2.41;70.86
65824;SHT31;52585;47.566;19.056;2023-02-15T07:51:31;2.49;71.15
65824;SHT31;52585;47.566;19.056;2023-02-15T07:53:56;2.54;71.25
65824;SHT31;52585;47.566;19.056;2023-02-15T07:56:22;2.62;71.40
65824;SHT31;52585;47.566;19.056;2023-02-15T07:58:47;2.68;71.42
65824;SHT31;52585;47.566;19.056;2023-02-15T08:01:16;2.74;71.24
65824;SHT31;52585;47.566;19.056;2023-02-15T08:03:53;2.80;71.19
65824;SHT31;52585;47.566;19.056;2023-02-15T08:06:20;2.86;71.13
65824;SHT31;52585;47.566;19.056;2023-02-15T08:08:47;2.91;71.04
65824;SHT31;52585;47.566;19.056;2023-02-15T08:11:17;2.96;70.92
65824;SHT31;52585;47.566;19.056;2023-02-15T08:14:09;3.00;71.04
65824;SHT31;52585;47.566;19.056;2023-02-15T08:16:41;3.08;71.27
65824;SHT31;52585;47.566;19.056;2023-02-15T08:24:18;3.38;71.66
65824;SHT31;52585;47.566;19.056;2023-02-15T08:26:47;3.50;71.39
65824;SHT31;52585;47.566;19.056;2023-02-15T08:29:15;3.60;71.03
65824;SHT31;52585;47.566;19.056;2023-02-15T08:31:43;3.67;70.91
65824;SHT31;52585;47.566;19.056;2023-02-15T08:34:11;3.74;71.01
65824;SHT31;52585;47.566;19.056;2023-02-15T08:36:43;3.81;70.60
65824;SHT31;52585;47.566;19.056;2023-02-15T08:39:10;3.85;70.43
65824;SHT31;52585;47.566;19.056;2023-02-15T08:41:38;3.90;70.47
65824;SHT31;52585;47.566;19.056;2023-02-15T08:44:07;3.94;70.33
65824;SHT31;52585;47.566;19.056;2023-02-15T08:46:34;3.97;70.76
65824;SHT31;52585;47.566;19.056;2023-02-15T08:49:03;4.04;70.92
65824;SHT31;52585;47.566;19.056;2023-02-15T08:51:31;4.10;70.84
65824;SHT31;52585;47.566;19.056;2023-02-15T08:54:00;4.17;70.96
65824;SHT31;52585;47.566;19.056;2023-02-15T08:56:32;4.29;72.92
65824;SHT31;52585;47.566;19.056;2023-02-15T08:59:01;4.39;72.41
65824;SHT31;52585;47.566;19.056;2023-02-15T09:01:29;4.46;72.74
65824;SHT31;52585;47.566;19.056;2023-02-15T09:03:58;4.55;72.56
65824;SHT31;52585;47.566;19.056;2023-02-15T09:06:30;4.62;74.75
65824;SHT31;52585;47.566;19.056;2023-02-15T09:08:57;4.72;73.90
65824;SHT31;52585;47.566;19.056;2023-02-15T09:11:25;4.78;72.70
65824;SHT31;52585;47.566;19.056;2023-02-15T09:13:55;4.85;72.99
65824;SHT31;52585;47.566;19.056;2023-02-15T09:16:35;4.95;73.14
65824;SHT31;52585;47.566;19.056;2023-02-15T09:19:03;5.03;73.00
65824;SHT31;52585;47.566;19.056;2023-02-15T09:21:30;5.12;74.29
65824;SHT31;52585;47.566;19.056;2023-02-15T09:23:58;5.16;72.58
65824;SHT31;52585;47.566;19.056;2023-02-15T09:26:27;5.18;72.38
65824;SHT31;52585;47.566;19.056;2023-02-15T09:28:56;5.20;72.03
65824;SHT31;52585;47.566;19.056;2023-02-15T09:31:32;5.21;71.98
65824;SHT31;52585;47.566;19.056;2023-02-15T09:34:04;5.24;71.64
65824;SHT31;52585;47.566;19.056;2023-02-15T09:36:33;5.27;71.56
65824;SHT31;52585;47.566;19.056;2023-02-15T09:44:58;5.38;70.63
65824;SHT31;52585;47.566;19.056;2023-02-15T09:51:20;5.47;70.63
65824;SHT31;52585;47.566;19.056;2023-02-15T09:57:19;5.54;70.28
65824;SHT31;52585;47.566;19.056;2023-02-15T10:03:04;5.64;70.22
65824;SHT31;52585;47.566;19.056;2023-02-15T10:11:18;5.84;70.31
65824;SHT31;52585;47.566;19.056;2023-02-15T10:17:59;6.01;69.60
65824;SHT31;52585;47.566;19.056;2023-02-15T10:21:29;6.05;69.52
65824;SHT31;52585;47.566;19.056;2023-02-15T10:31:48;6.21;69.02
65824;SHT31;52585;47.566;19.056;2023-02-15T10:34:28;6.25;69.04
65824;SHT31;52585;47.566;19.056;2023-02-15T10:45:48;6.46;68.87
65824;SHT31;52585;47.566;19.056;2023-02-15T10:59:53;6.72;67.74
65824;SHT31;52585;47.566;19.056;2023-02-15T11:02:37;6.78;67.42
65824;SHT31;52585;47.566;19.056;2023-02-15T11:07:55;6.87;66.91
65824;SHT31;52585;47.566;19.056;2023-02-15T11:13:22;6.94;66.94
65824;SHT31;52585;47.566;19.056;2023-02-15T11:16:12;6.97;66.75
65824;SHT31;52585;47.566;19.056;2023-02-15T11:18:53;6.97;66.48
65824;SHT31;52585;47.566;19.056;2023-02-15T11:21:31;6.99;66.26
65824;SHT31;52585;47.566;19.056;2023-02-15T11:26:54;7.08;67.00
65824;SHT31;52585;47.566;19.056;2023-02-15T11:32:46;7.33;66.76
65824;SHT31;52585;47.566;19.056;2023-02-15T11:35:32;7.37;66.47
65824;SHT31;52585;47.566;19.056;2023-02-15T11:38:16;7.40;66.10
65824;SHT31;52585;47.566;19.056;2023-02-15T11:40:48;7.43;65.63
65824;SHT31;52585;47.566;19.056;2023-02-15T11:46:03;7.48;65.17
65824;SHT31;52585;47.566;19.056;2023-02-15T11:48:30;7.50;65.17
65824;SHT31;52585;47.566;19.056;2023-02-15T11:50:57;7.51;65.38
65824;SHT31;52585;47.566;19.056;2023-02-15T11:53:24;7.51;65.12
65824;SHT31;52585;47.566;19.056;2023-02-15T11:55:57;7.52;64.88
65824;SHT31;52585;47.566;19.056;2023-02-15T12:00:56;7.55;64.59
65824;SHT31;52585;47.566;19.056;2023-02-15T12:03:47;7.57;64.40
65824;SHT31;52585;47.566;19.056;2023-02-15T12:06:18;7.60;64.37
65824;SHT31;52585;47.566;19.056;2023-02-15T12:12:22;7.66;64.32
65824;SHT31;52585;47.566;19.056;2023-02-15T12:14:55;7.68;64.08
65824;SHT31;52585;47.566;19.056;2023-02-15T12:17:29;7.71;64.19
65824;SHT31;52585;47.566;19.056;2023-02-15T12:20:03;7.75;64.41
65824;SHT31;52585;47.566;19.056;2023-02-15T12:22:33;7.78;64.33
65824;SHT31;52585;47.566;19.056;2023-02-15T12:25:04;7.82;64.15
65824;SHT31;52585;47.566;19.056;2023-02-15T12:28:20;7.84;63.81
65824;SHT31;52585;47.566;19.056;2023-02-15T12:30:57;7.86;64.02
65824;SHT31;52585;47.566;19.056;2023-02-15T12:33:45;7.90;64.21
65824;SHT31;52585;47.566;19.056;2023-02-15T12:36:12;7.94;63.73
65824;SHT31;52585;47.566;19.056;2023-02-15T12:41:45;7.97;63.45
65824;SHT31;52585;47.566;19.056;2023-02-15T12:44:25;8.00;63.26
65824;SHT31;52585;47.566;19.056;2023-02-15T12:47:04;8.03;63.36
65824;SHT31;52585;47.566;19.056;2023-02-15T12:49:39;8.06;63.12
65824;SHT31;52585;47.566;19.056;2023-02-15T12:52:06;8.08;63.04
65824;SHT31;52585;47.566;19.056;2023-02-15T12:54:43;8.10;62.64
65824;SHT31;52585;47.566;19.056;2023-02-15T12:59:59;8.11;62.66
65824;SHT31;52585;47.566;19.056;2023-02-15T13:02:31;8.13;62.81
65824;SHT31;52585;47.566;19.056;2023-02-15T13:07:57;8.16;62.63
65824;SHT31;52585;47.566;19.056;2023-02-15T13:12:53;8.19;62.65
65824;SHT31;52585;47.566;19.056;2023-02-15T13:15:44;8.20;63.04
65824;SHT31;52585;47.566;19.056;2023-02-15T13:18:18;8.23;62.98
65824;SHT31;52585;47.566;19.056;2023-02-15T13:21:13;8.24;62.68
65824;SHT31;52585;47.566;19.056;2023-02-15T13:23:44;8.27;62.42
65824;SHT31;52585;47.566;19.056;2023-02-15T13:26:20;8.30;61.98
65824;SHT31;52585;47.566;19.056;2023-02-15T13:28:49;8.32;62.04
65824;SHT31;52585;47.566;19.056;2023-02-15T13:31:22;8.35;62.21
65824;SHT31;52585;47.566;19.056;2023-02-15T13:34:00;8.39;62.93
65824;SHT31;52585;47.566;19.056;2023-02-15T13:59:12;8.59;62.15
65824;SHT31;52585;47.566;19.056;2023-02-15T14:01:57;8.63;62.76
65824;SHT31;52585;47.566;19.056;2023-02-15T14:10:31;8.67;61.64
65824;SHT31;52585;47.566;19.056;2023-02-15T14:19:20;8.67;61.54
65824;SHT31;52585;47.566;19.056;2023-02-15T14:24:41;8.70;60.70
65824;SHT31;52585;47.566;19.056;2023-02-15T14:32:45;8.67;61.42
65824;SHT31;52585;47.566;19.056;2023-02-15T14:35:23;8.65;60.85
65824;SHT31;52585;47.566;19.056;2023-02-15T14:46:37;8.62;61.68
65824;SHT31;52585;47.566;19.056;2023-02-15T14:49:23;8.62;61.29
65824;SHT31;52585;47.566;19.056;2023-02-15T14:51:56;8.62;61.31
65824;SHT31;52585;47.566;19.056;2023-02-15T14:59:53;8.60;61.57
65824;SHT31;52585;47.566;19.056;2023-02-15T15:07:57;8.54;61.46
65824;SHT31;52585;47.566;19.056;2023-02-15T15:12:54;8.49;61.82
65824;SHT31;52585;47.566;19.056;2023-02-15T15:20:42;8.44;60.99
65824;SHT31;52585;47.566;19.056;2023-02-15T15:25:47;8.40;61.94
65824;SHT31;52585;47.566;19.056;2023-02-15T15:31:07;8.32;62.41
65824;SHT31;52585;47.566;19.056;2023-02-15T15:48:59;8.12;62.66
65824;SHT31;52585;47.566;19.056;2023-02-15T15:51:33;8.07;62.87
65824;SHT31;52585;47.566;19.056;2023-02-15T15:54:04;8.03;62.94
65824;SHT31;52585;47.566;19.056;2023-02-15T15:56:33;8.00;63.08
65824;SHT31;52585;47.566;19.056;2023-02-15T15:59:02;7.97;63.11
65824;SHT31;52585;47.566;19.056;2023-02-15T16:01:42;7.92;63.25
65824;SHT31;52585;47.566;19.056;2023-02-15T16:04:10;7.90;63.24
